Cinderella 1 — SBLK — position and weather

sailwx.info

Track history (hours):
 
Tides and Currents Weather Stations Pressure Air Temp Water Temp Dewpoint Dewpoint Depression Visibility Wind Speed Wind Dir Waves Ship Positions

Cinderella 1

Last reported at 2014-Aug-27 10:20 UTC. Time now 2014-Aug-27 11:07 UTC.
Position N 59°20' E 018°12'.

Length 42 m; draft 1.1 m.

Type: Passenger vessel. MMSI: 265524530.

Date/timePositionNaut miles runAvg speedWind from/ knotsBaromVisibWave heightAir tempDewpointWater temp
2014-Aug-27 10:20N 59°20' E 018°12'3 4.3
2014-Aug-27 09:32N 59°20' E 018°05'0 0.0
2014-Aug-27 08:31N 59°20' E 018°05'3 0.2
2014-Aug-26 19:32N 59°19' E 018°10'2 0.6
2014-Aug-26 15:34N 59°20' E 018°05'7 5.8
2014-Aug-26 14:26N 59°22' E 018°17'5 1.1
2014-Aug-26 10:18N 59°19' E 018°10'3 3.7
2014-Aug-26 09:33N 59°20' E 018°05'0 0.0
2014-Aug-26 08:22N 59°20' E 018°05'0 0.0
2014-Aug-26 07:33N 59°20' E 018°05'1 0.0
2014-Aug-25 15:33N 59°20' E 018°05'0 0.0
2014-Aug-25 10:07N 59°20' E 018°05'1 0.9
2014-Aug-25 09:33N 59°20' E 018°05'0 0.0
2014-Aug-25 08:33N 59°20' E 018°05'0 0.0
2014-Aug-25 07:33N 59°20' E 018°05'0 0.0
2014-Aug-25 06:33N 59°20' E 018°05'0 0.0
2014-Aug-25 05:33N 59°20' E 018°05'0 0.0
2014-Aug-25 04:33N 59°20' E 018°05'0 0.0
2014-Aug-25 03:33N 59°20' E 018°05'0 0.0
2014-Aug-25 02:33N 59°20' E 018°05'0 0.0
2014-Aug-25 01:33N 59°20' E 018°05'0 0.0
2014-Aug-25 00:33N 59°20' E 018°05'0 0.0
2014-Aug-24 23:33N 59°20' E 018°05'0 0.0
2014-Aug-24 22:33N 59°20' E 018°05'0 0.0
2014-Aug-24 21:33N 59°20' E 018°05'0 0.0
2014-Aug-24 20:33N 59°20' E 018°05'0 0.0
2014-Aug-24 19:33N 59°20' E 018°05'0 0.1
2014-Aug-24 14:05N 59°20' E 018°05'4 0.6
2014-Aug-24 08:20N 59°20' E 018°12'4 5.0
2014-Aug-24 07:33N 59°20' E 018°05'0 0.0
2014-Aug-24 06:33N 59°20' E 018°05'0 0.0
2014-Aug-24 05:33N 59°20' E 018°05'0 0.0
2014-Aug-24 04:33N 59°20' E 018°05'0 0.0
2014-Aug-24 03:33N 59°20' E 018°05'0 0.0
2014-Aug-24 02:33N 59°20' E 018°05'0 0.0
2014-Aug-24 01:33N 59°20' E 018°05'0 0.0
2014-Aug-24 00:33N 59°20' E 018°05'0 0.0
2014-Aug-23 23:33N 59°20' E 018°05'0 0.0
2014-Aug-23 22:33N 59°20' E 018°05'0 0.0
2014-Aug-23 21:33N 59°20' E 018°05'0 0.0
2014-Aug-23 20:33N 59°20' E 018°05'0 0.0
2014-Aug-23 19:33N 59°20' E 018°05'0 0.0
2014-Aug-23 03:33N 59°20' E 018°05'0 0.0
2014-Aug-23 02:33N 59°20' E 018°05'0 0.0
2014-Aug-23 01:33N 59°20' E 018°05'0 0.0
2014-Aug-23 00:33N 59°20' E 018°05'0 0.0
2014-Aug-22 23:33N 59°20' E 018°05'0 0.0
2014-Aug-22 22:33N 59°20' E 018°05'0 0.0
2014-Aug-22 21:33N 59°20' E 018°05'0 0.0
2014-Aug-22 20:33N 59°20' E 018°05'0 0.1
2014-Aug-22 15:33N 59°20' E 018°05'0 0.0
2014-Aug-22 10:05N 59°20' E 018°05'1 1.0
2014-Aug-22 09:33N 59°20' E 018°05'0 0.0
2014-Aug-22 08:33N 59°20' E 018°05'0 0.0
2014-Aug-22 07:33N 59°20' E 018°05'0 0.0
2014-Aug-22 06:33N 59°20' E 018°05'0 0.0
2014-Aug-22 05:34N 59°20' E 018°05'0 0.0
2014-Aug-22 04:33N 59°20' E 018°05'0 0.0
2014-Aug-22 03:33N 59°20' E 018°05'0 0.0
2014-Aug-22 02:33N 59°20' E 018°05'0 0.0
2014-Aug-22 01:33N 59°20' E 018°05'0 0.0
2014-Aug-22 00:33N 59°20' E 018°05'0 0.0
2014-Aug-21 23:33N 59°20' E 018°05'0 0.0
2014-Aug-21 22:33N 59°20' E 018°05'0 0.0
2014-Aug-21 21:33N 59°20' E 018°05'0 0.0
2014-Aug-21 20:33N 59°20' E 018°05'0 0.0
2014-Aug-21 19:33N 59°20' E 018°05'0 0.0
2014-Aug-21 18:33N 59°20' E 018°05'0 0.0
2014-Aug-21 17:33N 59°20' E 018°05'0 0.0
2014-Aug-21 16:33N 59°20' E 018°05'0 0.0
2014-Aug-21 15:33N 59°20' E 018°05'0 0.0
2014-Aug-21 14:32N 59°20' E 018°05'0 0.0
2014-Aug-21 13:27N 59°20' E 018°05'0 0.0
2014-Aug-21 12:33N 59°20' E 018°05'1 0.0
2014-Aug-20 05:32N 59°20' E 018°05'1 0.5
2014-Aug-20 04:33N 59°20' E 018°05'0 0.0
2014-Aug-20 03:33N 59°20' E 018°05'0 0.0
2014-Aug-20 02:34N 59°20' E 018°05'0 0.0
2014-Aug-20 01:33N 59°20' E 018°05'0 0.0
2014-Aug-20 00:34N 59°20' E 018°05'0 0.0
2014-Aug-19 23:34N 59°20' E 018°05'0 0.0
2014-Aug-19 22:33N 59°20' E 018°05'0 0.0
2014-Aug-19 21:33N 59°20' E 018°05'0 0.0
2014-Aug-19 20:33N 59°20' E 018°05'0 0.1
2014-Aug-19 15:33N 59°20' E 018°05'0 0.0
2014-Aug-19 10:04N 59°20' E 018°05'1 1.0
2014-Aug-19 09:33N 59°20' E 018°05'0 0.0
2014-Aug-19 08:32N 59°20' E 018°05'0 0.0
2014-Aug-19 07:33N 59°20' E 018°05'0 0.0
2014-Aug-19 06:33N 59°20' E 018°05'0 0.0
2014-Aug-19 05:33N 59°20' E 018°05'0 0.0
2014-Aug-19 04:33N 59°20' E 018°05'0 0.0
2014-Aug-19 03:33N 59°20' E 018°05'0 0.0
2014-Aug-19 02:33N 59°20' E 018°05'0 0.0
2014-Aug-19 01:33N 59°20' E 018°05'0 0.0
2014-Aug-19 00:33N 59°20' E 018°05'0 0.0
2014-Aug-18 23:33N 59°20' E 018°05'0 0.0
2014-Aug-18 22:33N 59°20' E 018°05'0 0.0
2014-Aug-18 21:33N 59°20' E 018°05'0 0.0
2014-Aug-18 20:33N 59°20' E 018°05'0 0.1
2014-Aug-18 15:34N 59°20' E 018°05'0 0.0
2014-Aug-18 10:06N 59°19' E 018°06'1 1.1
2014-Aug-18 09:33N 59°20' E 018°05'0 0.0
2014-Aug-18 08:33N 59°20' E 018°05'0 0.0
2014-Aug-18 07:33N 59°20' E 018°05'0 0.0
2014-Aug-18 06:33N 59°20' E 018°05'0 0.0
2014-Aug-18 05:33N 59°20' E 018°05'0 0.0
2014-Aug-18 04:33N 59°20' E 018°05'0 0.0
2014-Aug-18 03:33N 59°20' E 018°05'0 0.0
2014-Aug-18 02:33N 59°20' E 018°05'0 0.0
2014-Aug-18 01:33N 59°20' E 018°05'0 0.0
2014-Aug-18 00:33N 59°20' E 018°05'0 0.0
2014-Aug-17 14:33N 59°20' E 018°05'  
Track history (hours):
 
Tides and Currents Weather Stations Pressure Air Temp Water Temp Dewpoint Dewpoint Depression Visibility Wind Speed Wind Dir Waves Ship Positions

Cinderella 1

Last reported at 2014-Aug-27 10:20 UTC. Time now 2014-Aug-27 11:07 UTC.
Position N 59°20' E 018°12'.

Length 42 m; draft 1.1 m.

Type: Passenger vessel. MMSI: 265524530.

Date/timePositionNaut miles runAvg speedWind from/ knotsBaromVisibWave heightAir tempDewpointWater temp
2014-Aug-27 10:20N 59°20' E 018°12'3 4.3
2014-Aug-27 09:32N 59°20' E 018°05'0 0.0
2014-Aug-27 08:31N 59°20' E 018°05'3 0.2
2014-Aug-26 19:32N 59°19' E 018°10'2 0.6
2014-Aug-26 15:34N 59°20' E 018°05'7 5.8
2014-Aug-26 14:26N 59°22' E 018°17'5 1.1
2014-Aug-26 10:18N 59°19' E 018°10'3 3.7
2014-Aug-26 09:33N 59°20' E 018°05'0 0.0
2014-Aug-26 08:22N 59°20' E 018°05'0 0.0
2014-Aug-26 07:33N 59°20' E 018°05'1 0.0
2014-Aug-25 15:33N 59°20' E 018°05'0 0.0
2014-Aug-25 10:07N 59°20' E 018°05'1 0.9
2014-Aug-25 09:33N 59°20' E 018°05'0 0.0
2014-Aug-25 08:33N 59°20' E 018°05'0 0.0
2014-Aug-25 07:33N 59°20' E 018°05'0 0.0
2014-Aug-25 06:33N 59°20' E 018°05'0 0.0
2014-Aug-25 05:33N 59°20' E 018°05'0 0.0
2014-Aug-25 04:33N 59°20' E 018°05'0 0.0
2014-Aug-25 03:33N 59°20' E 018°05'0 0.0
2014-Aug-25 02:33N 59°20' E 018°05'0 0.0
2014-Aug-25 01:33N 59°20' E 018°05'0 0.0
2014-Aug-25 00:33N 59°20' E 018°05'0 0.0
2014-Aug-24 23:33N 59°20' E 018°05'0 0.0
2014-Aug-24 22:33N 59°20' E 018°05'0 0.0
2014-Aug-24 21:33N 59°20' E 018°05'0 0.0
2014-Aug-24 20:33N 59°20' E 018°05'0 0.0
2014-Aug-24 19:33N 59°20' E 018°05'0 0.1
2014-Aug-24 14:05N 59°20' E 018°05'4 0.6
2014-Aug-24 08:20N 59°20' E 018°12'4 5.0
2014-Aug-24 07:33N 59°20' E 018°05'0 0.0
2014-Aug-24 06:33N 59°20' E 018°05'0 0.0
2014-Aug-24 05:33N 59°20' E 018°05'0 0.0
2014-Aug-24 04:33N 59°20' E 018°05'0 0.0
2014-Aug-24 03:33N 59°20' E 018°05'0 0.0
2014-Aug-24 02:33N 59°20' E 018°05'0 0.0
2014-Aug-24 01:33N 59°20' E 018°05'0 0.0
2014-Aug-24 00:33N 59°20' E 018°05'0 0.0
2014-Aug-23 23:33N 59°20' E 018°05'0 0.0
2014-Aug-23 22:33N 59°20' E 018°05'0 0.0
2014-Aug-23 21:33N 59°20' E 018°05'0 0.0
2014-Aug-23 20:33N 59°20' E 018°05'0 0.0
2014-Aug-23 19:33N 59°20' E 018°05'0 0.0
2014-Aug-23 03:33N 59°20' E 018°05'0 0.0
2014-Aug-23 02:33N 59°20' E 018°05'0 0.0
2014-Aug-23 01:33N 59°20' E 018°05'0 0.0
2014-Aug-23 00:33N 59°20' E 018°05'0 0.0
2014-Aug-22 23:33N 59°20' E 018°05'0 0.0
2014-Aug-22 22:33N 59°20' E 018°05'0 0.0
2014-Aug-22 21:33N 59°20' E 018°05'0 0.0
2014-Aug-22 20:33N 59°20' E 018°05'0 0.1
2014-Aug-22 15:33N 59°20' E 018°05'0 0.0
2014-Aug-22 10:05N 59°20' E 018°05'1 1.0
2014-Aug-22 09:33N 59°20' E 018°05'0 0.0
2014-Aug-22 08:33N 59°20' E 018°05'0 0.0
2014-Aug-22 07:33N 59°20' E 018°05'0 0.0
2014-Aug-22 06:33N 59°20' E 018°05'0 0.0
2014-Aug-22 05:34N 59°20' E 018°05'0 0.0
2014-Aug-22 04:33N 59°20' E 018°05'0 0.0
2014-Aug-22 03:33N 59°20' E 018°05'0 0.0
2014-Aug-22 02:33N 59°20' E 018°05'0 0.0
2014-Aug-22 01:33N 59°20' E 018°05'0 0.0
2014-Aug-22 00:33N 59°20' E 018°05'0 0.0
2014-Aug-21 23:33N 59°20' E 018°05'0 0.0
2014-Aug-21 22:33N 59°20' E 018°05'0 0.0
2014-Aug-21 21:33N 59°20' E 018°05'0 0.0
2014-Aug-21 20:33N 59°20' E 018°05'0 0.0
2014-Aug-21 19:33N 59°20' E 018°05'0 0.0
2014-Aug-21 18:33N 59°20' E 018°05'0 0.0
2014-Aug-21 17:33N 59°20' E 018°05'0 0.0
2014-Aug-21 16:33N 59°20' E 018°05'0 0.0
2014-Aug-21 15:33N 59°20' E 018°05'0 0.0
2014-Aug-21 14:32N 59°20' E 018°05'0 0.0
2014-Aug-21 13:27N 59°20' E 018°05'0 0.0
2014-Aug-21 12:33N 59°20' E 018°05'1 0.0
2014-Aug-20 05:32N 59°20' E 018°05'1 0.5
2014-Aug-20 04:33N 59°20' E 018°05'0 0.0
2014-Aug-20 03:33N 59°20' E 018°05'0 0.0
2014-Aug-20 02:34N 59°20' E 018°05'0 0.0
2014-Aug-20 01:33N 59°20' E 018°05'0 0.0
2014-Aug-20 00:34N 59°20' E 018°05'0 0.0
2014-Aug-19 23:34N 59°20' E 018°05'0 0.0
2014-Aug-19 22:33N 59°20' E 018°05'0 0.0
2014-Aug-19 21:33N 59°20' E 018°05'0 0.0
2014-Aug-19 20:33N 59°20' E 018°05'0 0.1
2014-Aug-19 15:33N 59°20' E 018°05'0 0.0
2014-Aug-19 10:04N 59°20' E 018°05'1 1.0
2014-Aug-19 09:33N 59°20' E 018°05'0 0.0
2014-Aug-19 08:32N 59°20' E 018°05'0 0.0
2014-Aug-19 07:33N 59°20' E 018°05'0 0.0
2014-Aug-19 06:33N 59°20' E 018°05'0 0.0
2014-Aug-19 05:33N 59°20' E 018°05'0 0.0
2014-Aug-19 04:33N 59°20' E 018°05'0 0.0
2014-Aug-19 03:33N 59°20' E 018°05'0 0.0
2014-Aug-19 02:33N 59°20' E 018°05'0 0.0
2014-Aug-19 01:33N 59°20' E 018°05'0 0.0
2014-Aug-19 00:33N 59°20' E 018°05'0 0.0
2014-Aug-18 23:33N 59°20' E 018°05'0 0.0
2014-Aug-18 22:33N 59°20' E 018°05'0 0.0
2014-Aug-18 21:33N 59°20' E 018°05'0 0.0
2014-Aug-18 20:33N 59°20' E 018°05'0 0.1
2014-Aug-18 15:34N 59°20' E 018°05'0 0.0
2014-Aug-18 10:06N 59°19' E 018°06'1 1.1
2014-Aug-18 09:33N 59°20' E 018°05'0 0.0
2014-Aug-18 08:33N 59°20' E 018°05'0 0.0
2014-Aug-18 07:33N 59°20' E 018°05'0 0.0
2014-Aug-18 06:33N 59°20' E 018°05'0 0.0
2014-Aug-18 05:33N 59°20' E 018°05'0 0.0
2014-Aug-18 04:33N 59°20' E 018°05'0 0.0
2014-Aug-18 03:33N 59°20' E 018°05'0 0.0
2014-Aug-18 02:33N 59°20' E 018°05'0 0.0
2014-Aug-18 01:33N 59°20' E 018°05'0 0.0
2014-Aug-18 00:33N 59°20' E 018°05'0 0.0
2014-Aug-17 14:33N 59°20' E 018°05'  

Dump ship's entire track history